Terminal Aerodrome Forecast
Issued by NWS Cleveland, OH

Home | Current Version | Previous Version | Graphics & Text | Print | Product List | Glossary On
Versions: 1 2 3 4 5 6 7 8 9 10 11 12 13 14 15 16
750
FTUS41 KCLE 061720
TAFERI
TAF
KERI 061720Z 0618/0718 12012G20KT P6SM -RA OVC030
     FM062000 12010G20KT 4SM -RA BR OVC020
      TEMPO 0620/0624 3SM -RA BR OVC010
     FM070300 21012G20KT P6SM OVC015
     FM070600 25012G20KT P6SM SCT015 OVC025=

USA.gov is the U.S. government's official web portal to all federal, state and local government web resources and services.